Elgin, Washington
Current Conditions -  °F | °C
As of 11:53 PM on Wednesday 28 Jan 2015 (Local Time) from KTIW Reporting Station
Scattered Clouds Scattered Clouds  
Wind Chill: 42°   Ceiling: Unl
Heat Index: 44°   Visibility: 10mi
Dew Point: 41°   Wind: 5mph
Humidity: 89%   Direction: 20°NNE
Pressure: 30.36"   Gusts: NA
Location:  47.2986°N, 122.616°W
Report Text: KTIW 290753Z AUTO 02004KT 10SM SCT085 07/05 A3036 RMK AO2 SLP283 T00670050 401110056
Loading
Personal Weather Stations






























Interactive Weather Map New forecast layout! Learn more

10-Day Weather Forecast

Advertisements
Track Severe Weather on mobile